Independence — WDF3297 — position and weather

sailwx.info

Track history (hours):
 
Tides and Currents Weather Stations Pressure Air Temp Water Temp Dewpoint Dewpoint Depression Visibility Wind Speed Wind Dir Waves Ship Positions

Independence

Owner: American Cruise Lines Inc., Delmar, DE. More information available from US FCC via Universal Licensing System and Coast Guard Vessel Documentation Center.

Last reported at 2015-May-29 15:33 UTC. Time now 2015-May-29 16:22 UTC.
Position N 41°26' W 071°13'.

Length 65 m; draft 2.5 m.

Type: Passenger vessel. MMSI: 367438210.

Date/timePositionNaut miles runAvg speedWind from/ knotsBaromVisibWave heightAir tempDewpointWater temp
2015-May-29 15:33N 41°26' W 071°13'15 7.6
2015-May-29 13:33N 41°41' W 071°19'3 0.2
2015-May-28 22:33N 41°44' W 071°21'7 1.4
2015-May-28 17:32N 41°37' W 071°17'9 0.5
2015-May-28 00:31N 41°29' W 071°20'0 0.0
2015-May-27 23:31N 41°29' W 071°20'0 0.0
2015-May-27 22:33N 41°29' W 071°20'10 9.7
2015-May-27 21:29N 41°38' W 071°16'7 6.5
2015-May-27 20:29N 41°32' W 071°13'7 7.9
2015-May-27 19:33N 41°26' W 071°08'9 9.4
2015-May-27 18:33N 41°28' W 070°56'9 8.7
2015-May-27 17:31N 41°28' W 070°44'6 0.4
2015-May-27 00:26N 41°27' W 070°36'0 0.0
2015-May-26 20:05N 41°27' W 070°36'0 0.0
2015-May-26 08:08N 41°27' W 070°36'0 0.0
2015-May-26 07:23N 41°27' W 070°36'0 0.0
2015-May-26 06:32N 41°27' W 070°36'0 0.0
2015-May-26 05:14N 41°27' W 070°36'0 0.0
2015-May-26 04:32N 41°27' W 070°36'0 0.0
2015-May-26 03:32N 41°27' W 070°36'13 3.2
2015-May-25 23:25N 41°24' W 070°53'911.1
2015-May-25 22:33N 41°21' W 071°05'1111.1
2015-May-25 21:33N 41°19' W 071°19'1111.0
2015-May-25 20:33N 41°16' W 071°33'5 4.9
2015-May-25 19:31N 41°11' W 071°35'0 0.0
2015-May-25 18:31N 41°11' W 071°35'0 0.0
2015-May-25 17:31N 41°11' W 071°35'0 0.0
2015-May-25 16:31N 41°11' W 071°35'0 0.0
2015-May-25 15:31N 41°11' W 071°35'0 0.0
2015-May-25 14:31N 41°11' W 071°35'0 0.0
2015-May-25 13:31N 41°11' W 071°35'0 0.0
2015-May-25 12:31N 41°11' W 071°35'4 4.3
2015-May-25 11:33N 41°15' W 071°35'10 9.6
2015-May-25 10:33N 41°19' W 071°23'10 9.8
2015-May-25 09:33N 41°23' W 071°11'10 9.8
2015-May-25 08:33N 41°27' W 070°60'11 0.5
2015-May-24 10:16N 41°38' W 070°55'0 0.0
2015-May-24 09:25N 41°38' W 070°55'5 0.5
2015-May-23 22:33N 41°33' W 070°52'9 9.5
2015-May-23 21:34N 41°27' W 071°01'9 8.8
2015-May-23 20:34N 41°27' W 071°13'15 7.3
2015-May-23 18:33N 41°41' W 071°19'8 0.4
2015-May-22 23:11N 41°48' W 071°23'6 9.9
2015-May-22 22:33N 41°43' W 071°20'14 2.3
2015-May-22 16:33N 41°29' W 071°20'0 0.0
2015-May-22 11:28N 41°29' W 071°20'0 0.0
2015-May-22 10:22N 41°29' W 071°20'0 0.0
2015-May-22 09:04N 41°29' W 071°20'0 0.0
2015-May-22 01:28N 41°29' W 071°20'0 0.0
2015-May-22 00:10N 41°29' W 071°20'0 0.0
2015-May-21 22:25N 41°29' W 071°20'0 0.0
2015-May-21 21:07N 41°29' W 071°20'0 0.0
2015-May-21 20:13N 41°29' W 071°20'0 0.1
2015-May-21 18:33N 41°29' W 071°20'9 9.0
2015-May-21 17:33N 41°21' W 071°26'10 9.7
2015-May-21 16:33N 41°14' W 071°35'3 3.2
2015-May-21 15:31N 41°11' W 071°35'0 0.0
2015-May-21 14:31N 41°11' W 071°35'0 0.0
2015-May-21 13:31N 41°11' W 071°35'0 0.0
2015-May-21 12:31N 41°11' W 071°35'1 0.6
2015-May-21 11:33N 41°11' W 071°35'7 6.8
2015-May-21 10:33N 41°17' W 071°29'9 9.1
2015-May-21 09:34N 41°19' W 071°18'10 9.7
2015-May-21 08:33N 41°21' W 071°05'23 0.7
2015-May-19 23:08N 41°28' W 070°35'5 8.7
2015-May-19 22:34N 41°28' W 070°28'  
Track history (hours):
 
Tides and Currents Weather Stations Pressure Air Temp Water Temp Dewpoint Dewpoint Depression Visibility Wind Speed Wind Dir Waves Ship Positions

Independence

Owner: American Cruise Lines Inc., Delmar, DE. More information available from US FCC via Universal Licensing System and Coast Guard Vessel Documentation Center.

Last reported at 2015-May-29 15:33 UTC. Time now 2015-May-29 16:22 UTC.
Position N 41°26' W 071°13'.

Length 65 m; draft 2.5 m.

Type: Passenger vessel. MMSI: 367438210.

Date/timePositionNaut miles runAvg speedWind from/ knotsBaromVisibWave heightAir tempDewpointWater temp
2015-May-29 15:33N 41°26' W 071°13'15 7.6
2015-May-29 13:33N 41°41' W 071°19'3 0.2
2015-May-28 22:33N 41°44' W 071°21'7 1.4
2015-May-28 17:32N 41°37' W 071°17'9 0.5
2015-May-28 00:31N 41°29' W 071°20'0 0.0
2015-May-27 23:31N 41°29' W 071°20'0 0.0
2015-May-27 22:33N 41°29' W 071°20'10 9.7
2015-May-27 21:29N 41°38' W 071°16'7 6.5
2015-May-27 20:29N 41°32' W 071°13'7 7.9
2015-May-27 19:33N 41°26' W 071°08'9 9.4
2015-May-27 18:33N 41°28' W 070°56'9 8.7
2015-May-27 17:31N 41°28' W 070°44'6 0.4
2015-May-27 00:26N 41°27' W 070°36'0 0.0
2015-May-26 20:05N 41°27' W 070°36'0 0.0
2015-May-26 08:08N 41°27' W 070°36'0 0.0
2015-May-26 07:23N 41°27' W 070°36'0 0.0
2015-May-26 06:32N 41°27' W 070°36'0 0.0
2015-May-26 05:14N 41°27' W 070°36'0 0.0
2015-May-26 04:32N 41°27' W 070°36'0 0.0
2015-May-26 03:32N 41°27' W 070°36'13 3.2
2015-May-25 23:25N 41°24' W 070°53'911.1
2015-May-25 22:33N 41°21' W 071°05'1111.1
2015-May-25 21:33N 41°19' W 071°19'1111.0
2015-May-25 20:33N 41°16' W 071°33'5 4.9
2015-May-25 19:31N 41°11' W 071°35'0 0.0
2015-May-25 18:31N 41°11' W 071°35'0 0.0
2015-May-25 17:31N 41°11' W 071°35'0 0.0
2015-May-25 16:31N 41°11' W 071°35'0 0.0
2015-May-25 15:31N 41°11' W 071°35'0 0.0
2015-May-25 14:31N 41°11' W 071°35'0 0.0
2015-May-25 13:31N 41°11' W 071°35'0 0.0
2015-May-25 12:31N 41°11' W 071°35'4 4.3
2015-May-25 11:33N 41°15' W 071°35'10 9.6
2015-May-25 10:33N 41°19' W 071°23'10 9.8
2015-May-25 09:33N 41°23' W 071°11'10 9.8
2015-May-25 08:33N 41°27' W 070°60'11 0.5
2015-May-24 10:16N 41°38' W 070°55'0 0.0
2015-May-24 09:25N 41°38' W 070°55'5 0.5
2015-May-23 22:33N 41°33' W 070°52'9 9.5
2015-May-23 21:34N 41°27' W 071°01'9 8.8
2015-May-23 20:34N 41°27' W 071°13'15 7.3
2015-May-23 18:33N 41°41' W 071°19'8 0.4
2015-May-22 23:11N 41°48' W 071°23'6 9.9
2015-May-22 22:33N 41°43' W 071°20'14 2.3
2015-May-22 16:33N 41°29' W 071°20'0 0.0
2015-May-22 11:28N 41°29' W 071°20'0 0.0
2015-May-22 10:22N 41°29' W 071°20'0 0.0
2015-May-22 09:04N 41°29' W 071°20'0 0.0
2015-May-22 01:28N 41°29' W 071°20'0 0.0
2015-May-22 00:10N 41°29' W 071°20'0 0.0
2015-May-21 22:25N 41°29' W 071°20'0 0.0
2015-May-21 21:07N 41°29' W 071°20'0 0.0
2015-May-21 20:13N 41°29' W 071°20'0 0.1
2015-May-21 18:33N 41°29' W 071°20'9 9.0
2015-May-21 17:33N 41°21' W 071°26'10 9.7
2015-May-21 16:33N 41°14' W 071°35'3 3.2
2015-May-21 15:31N 41°11' W 071°35'0 0.0
2015-May-21 14:31N 41°11' W 071°35'0 0.0
2015-May-21 13:31N 41°11' W 071°35'0 0.0
2015-May-21 12:31N 41°11' W 071°35'1 0.6
2015-May-21 11:33N 41°11' W 071°35'7 6.8
2015-May-21 10:33N 41°17' W 071°29'9 9.1
2015-May-21 09:34N 41°19' W 071°18'10 9.7
2015-May-21 08:33N 41°21' W 071°05'23 0.7
2015-May-19 23:08N 41°28' W 070°35'5 8.7
2015-May-19 22:34N 41°28' W 070°28'  

Dump ship's entire track history